Time;durP1;ratioP1;P1;durP2;ratioP2;P2;SDS_P1;SDS_P2;PMS_P1;PMS_P2;Temp;Humidity;BMP_temperature;BMP_pressure;BME280_temperature;BME280_humidity;BME280_pressure;Samples;Min_cycle;Max_cycle;Signal;HPM_P1;HPM_P2
2022/10/16 00:40:08;;;;;;;26.27;23.52;;;23.10;99.90;;;;;;6382671;23;88412;-65
2022/10/16 00:43:15;;;;;;;25.27;22.58;;;23.10;99.90;;;;;;6055407;28;89248;-65
2022/10/16 00:46:20;;;;;;;25.58;22.95;;;23.10;99.90;;;;;;6044361;28;89443;-66
2022/10/16 00:49:22;;;;;;;28.60;25.13;;;23.10;99.90;;;;;;6054238;28;88345;-66
2022/10/16 00:52:24;;;;;;;27.70;25.00;;;23.20;99.90;;;;;;6050603;28;89540;-66
2022/10/16 00:55:30;;;;;;;28.23;25.15;;;23.20;99.90;;;;;;6053664;28;88960;-65
2022/10/16 00:58:32;;;;;;;26.17;23.55;;;23.30;99.90;;;;;;6056429;28;92250;-65
2022/10/16 01:01:34;;;;;;;26.50;23.80;;;23.40;99.90;;;;;;6051687;28;88989;-66
2022/10/16 01:04:39;;;;;;;27.23;24.17;;;23.60;99.90;;;;;;6047340;28;89075;-65
2022/10/16 01:07:49;;;;;;;27.08;23.92;;;23.70;99.90;;;;;;6044039;28;87998;-65
2022/10/16 01:10:58;;;;;;;26.80;24.02;;;23.70;99.90;;;;;;6042963;28;89140;-65
2022/10/16 01:14:06;;;;;;;26.17;23.55;;;23.70;99.90;;;;;;6044408;28;89138;-65
2022/10/16 01:17:13;;;;;;;26.60;23.98;;;23.70;99.90;;;;;;6049218;28;89113;-65
2022/10/16 01:20:26;;;;;;;26.38;23.58;;;23.70;99.90;;;;;;6056366;28;88404;-66
2022/10/16 01:23:44;;;;;;;26.42;23.58;;;23.60;99.90;;;;;;6039443;28;89175;-65
2022/10/16 01:27:15;;;;;;;26.20;23.38;;;23.60;99.90;;;;;;6059880;28;89160;-65
2022/10/16 01:30:21;;;;;;;23.70;21.40;;;23.60;99.90;;;;;;6034808;28;90547;-65
2022/10/16 01:33:29;;;;;;;24.13;21.60;;;23.50;99.90;;;;;;6045663;28;88813;-65
2022/10/16 01:36:38;;;;;;;24.60;21.95;;;23.50;99.90;;;;;;6058721;28;89245;-65
2022/10/16 01:39:43;;;;;;;23.58;21.13;;;23.40;99.90;;;;;;6055208;28;89067;-65
2022/10/16 01:42:52;;;;;;;23.33;20.85;;;23.40;99.90;;;;;;6052083;28;89137;-65
2022/10/16 01:45:54;;;;;;;24.00;21.60;;;23.40;99.90;;;;;;6050526;28;89060;-65
2022/10/16 01:48:57;;;;;;;24.52;21.80;;;23.40;99.90;;;;;;6050750;28;89481;-65
2022/10/16 01:52:03;;;;;;;24.55;21.92;;;23.40;99.90;;;;;;6053466;28;88062;-65
2022/10/16 04:36:49;;;;;;;17.83;16.13;;;23.10;99.90;;;;;;6014945;28;92754;-66
2022/10/16 04:39:51;;;;;;;17.98;16.27;;;23.20;99.90;;;;;;6013596;28;90320;-66
2022/10/16 04:42:53;;;;;;;18.65;16.85;;;23.10;99.90;;;;;;5986634;29;89075;-66
2022/10/16 04:45:56;;;;;;;18.15;16.45;;;23.20;99.90;;;;;;5988760;29;87935;-66
2022/10/16 04:48:58;;;;;;;18.25;16.45;;;23.20;99.90;;;;;;5996071;29;89220;-66
2022/10/16 04:52:02;;;;;;;17.40;15.73;;;23.20;99.90;;;;;;5990115;29;88034;-66
2022/10/16 04:55:04;;;;;;;17.27;15.57;;;23.20;99.90;;;;;;5995634;29;90764;-66
2022/10/16 04:58:07;;;;;;;17.17;15.57;;;23.20;99.90;;;;;;5995701;29;89032;-66
2022/10/16 05:01:09;;;;;;;16.85;15.25;;;23.20;99.90;;;;;;5983197;29;88460;-66
2022/10/16 05:04:11;;;;;;;17.52;15.82;;;23.20;99.90;;;;;;6001371;29;89207;-66
2022/10/16 05:07:14;;;;;;;16.75;15.15;;;23.20;99.90;;;;;;5989734;29;89162;-66
2022/10/16 05:10:16;;;;;;;16.45;14.85;;;23.20;99.90;;;;;;5987719;29;90414;-66
2022/10/16 05:13:18;;;;;;;16.50;14.90;;;23.20;99.90;;;;;;5990190;29;89930;-66
2022/10/16 05:16:20;;;;;;;17.45;15.75;;;23.20;99.90;;;;;;5990335;29;89129;-65
2022/10/16 05:19:22;;;;;;;16.20;14.60;;;23.20;99.90;;;;;;5991248;29;89184;-66
2022/10/16 05:22:26;;;;;;;15.95;14.45;;;23.20;99.90;;;;;;5990253;29;89269;-66
2022/10/16 05:25:28;;;;;;;16.75;15.15;;;23.20;99.90;;;;;;5988982;29;88134;-66
2022/10/16 05:28:31;;;;;;;15.95;14.35;;;23.20;99.90;;;;;;5990322;29;89046;-66
2022/10/16 05:31:33;;;;;;;16.38;14.77;;;23.20;99.90;;;;;;5991409;29;88265;-66
2022/10/16 05:34:35;;;;;;;15.77;14.30;;;23.20;99.90;;;;;;5989996;29;89312;-66
2022/10/16 05:37:38;;;;;;;15.57;14.07;;;23.20;99.90;;;;;;5988731;29;89011;-65
2022/10/16 05:40:40;;;;;;;16.73;15.00;;;23.20;99.90;;;;;;6008516;29;88921;-65
2022/10/16 05:43:42;;;;;;;16.10;14.50;;;23.20;99.90;;;;;;6020944;29;87933;-66
2022/10/16 05:46:44;;;;;;;15.80;14.30;;;23.20;99.90;;;;;;6018376;28;87954;-65
2022/10/16 05:49:46;;;;;;;15.60;14.10;;;23.20;99.90;;;;;;6016247;29;87064;-66
2022/10/16 05:52:49;;;;;;;15.25;13.85;;;23.20;99.90;;;;;;6016957;29;89014;-66
2022/10/16 05:55:53;;;;;;;14.77;13.27;;;23.20;99.90;;;;;;6015452;29;89146;-65
2022/10/16 05:58:55;;;;;;;14.93;13.52;;;23.20;99.90;;;;;;6015774;29;89204;-66
2022/10/16 06:01:57;;;;;;;15.70;14.20;;;23.20;99.90;;;;;;6016796;29;88455;-65
2022/10/16 06:04:59;;;;;;;15.32;13.82;;;23.20;99.90;;;;;;6016471;29;89134;-66
2022/10/16 06:08:03;;;;;;;14.52;13.18;;;23.20;99.90;;;;;;6017815;29;89228;-66
2022/10/16 06:11:07;;;;;;;14.98;13.57;;;23.20;99.90;;;;;;6015885;29;90066;-65
2022/10/16 06:14:10;;;;;;;14.70;13.30;;;23.20;99.90;;;;;;6015953;29;89436;-65
2022/10/16 06:17:12;;;;;;;14.88;13.48;;;23.20;99.90;;;;;;6015785;29;89131;-65
2022/10/16 06:20:14;;;;;;;14.00;12.70;;;23.20;99.90;;;;;;6016469;29;89103;-65
2022/10/16 06:23:17;;;;;;;15.02;13.57;;;23.20;99.90;;;;;;6016165;29;89147;-65
2022/10/16 06:26:21;;;;;;;14.82;13.43;;;23.20;99.90;;;;;;6016343;29;88970;-66
2022/10/16 06:29:23;;;;;;;15.10;13.60;;;23.20;99.90;;;;;;6016470;29;88055;-65
2022/10/16 06:32:25;;;;;;;14.82;13.23;;;23.20;99.90;;;;;;6016005;29;88353;-65
2022/10/16 06:35:29;;;;;;;13.90;12.50;;;23.30;99.90;;;;;;6016737;29;89364;-65
2022/10/16 06:38:33;;;;;;;14.68;13.30;;;23.30;99.90;;;;;;6015246;29;89005;-65
2022/10/16 06:41:35;;;;;;;14.32;12.93;;;23.20;99.90;;;;;;6015577;29;89982;-65
2022/10/16 06:44:37;;;;;;;14.13;12.80;;;23.30;99.90;;;;;;6021017;29;89149;-65
2022/10/16 06:47:39;;;;;;;14.00;12.70;;;23.30;99.90;;;;;;6015653;29;89086;-65
2022/10/16 06:50:41;;;;;;;13.35;12.05;;;23.30;99.90;;;;;;6016275;29;89331;-65
2022/10/16 06:53:46;;;;;;;13.88;12.57;;;23.30;99.90;;;;;;6015608;29;89057;-65
2022/10/16 06:56:49;;;;;;;13.68;12.38;;;23.30;99.90;;;;;;6016168;29;89101;-65
2022/10/16 06:59:51;;;;;;;13.30;12.10;;;23.30;99.90;;;;;;6016747;29;89089;-65
2022/10/16 07:02:53;;;;;;;13.05;11.88;;;23.30;99.90;;;;;;6016025;29;88646;-65
2022/10/16 07:05:55;;;;;;;13.50;12.20;;;23.30;99.90;;;;;;6016312;29;89116;-65
2022/10/16 07:08:59;;;;;;;13.80;12.50;;;23.30;99.90;;;;;;6014486;29;89060;-65
2022/10/16 07:12:01;;;;;;;13.18;11.98;;;23.40;99.90;;;;;;6015590;29;90001;-65
2022/10/16 07:15:03;;;;;;;13.13;11.93;;;23.40;99.90;;;;;;6015498;29;89256;-65
2022/10/16 07:18:05;;;;;;;12.98;11.68;;;23.40;99.90;;;;;;6015626;29;89409;-65
2022/10/16 07:21:08;;;;;;;13.30;12.10;;;23.40;99.90;;;;;;6016280;29;89110;-65
2022/10/16 07:24:15;;;;;;;12.45;11.35;;;23.40;99.90;;;;;;6016181;29;88067;-66
2022/10/16 07:27:17;;;;;;;13.10;11.90;;;23.40;99.90;;;;;;6015842;29;89314;-65
2022/10/16 07:30:19;;;;;;;13.30;12.00;;;23.40;99.90;;;;;;6013595;29;88581;-66
2022/10/16 07:33:21;;;;;;;12.77;11.57;;;23.40;99.90;;;;;;6014862;29;88355;-65
2022/10/16 07:36:23;;;;;;;12.38;11.07;;;23.50;99.90;;;;;;6014148;29;89577;-65
2022/10/16 07:39:27;;;;;;;13.07;11.88;;;23.50;99.90;;;;;;6013754;29;89213;-66
2022/10/16 07:42:29;;;;;;;12.48;11.27;;;23.50;99.90;;;;;;6012163;29;89940;-66
2022/10/16 07:45:31;;;;;;;12.65;11.45;;;23.50;99.90;;;;;;6014253;29;89131;-65
2022/10/16 07:48:35;;;;;;;13.25;11.95;;;23.50;99.90;;;;;;6014813;29;90774;-65
2022/10/16 07:51:38;;;;;;;12.43;11.32;;;23.50;99.90;;;;;;6014744;29;87981;-66
2022/10/16 07:54:41;;;;;;;12.80;11.57;;;23.50;99.90;;;;;;6014468;29;89065;-66
2022/10/16 07:57:43;;;;;;;13.35;12.05;;;23.50;99.90;;;;;;6014372;29;89120;-66
2022/10/16 08:00:45;;;;;;;13.07;11.88;;;23.40;99.90;;;;;;6012794;29;88095;-66
2022/10/16 08:03:49;;;;;;;13.20;11.98;;;23.50;99.90;;;;;;6013738;29;88463;-66
2022/10/16 08:06:51;;;;;;;13.15;11.93;;;23.50;99.90;;;;;;6013798;29;89329;-66
2022/10/16 08:09:56;;;;;;;13.48;12.18;;;23.40;99.90;;;;;;6013721;29;91858;-66
2022/10/16 08:12:58;;;;;;;13.20;11.90;;;23.50;99.90;;;;;;6014264;29;89917;-67
2022/10/16 08:16:01;;;;;;;12.98;11.68;;;23.40;99.90;;;;;;6012004;29;90195;-66
2022/10/16 08:19:03;;;;;;;13.02;11.82;;;23.40;99.90;;;;;;6013659;29;88064;-66
2022/10/16 08:22:05;;;;;;;13.50;12.10;;;23.40;99.90;;;;;;6012518;29;89006;-66
2022/10/16 08:25:09;;;;;;;13.13;11.93;;;23.50;99.90;;;;;;6013541;29;88955;-65
2022/10/16 08:28:12;;;;;;;13.05;11.77;;;23.40;99.90;;;;;;6013109;29;88030;-64
2022/10/16 08:31:15;;;;;;;13.40;12.15;;;23.50;99.90;;;;;;6013775;29;89191;-63
2022/10/16 08:34:17;;;;;;;12.90;11.60;;;23.50;99.90;;;;;;6014307;29;88295;-64
2022/10/16 08:37:19;;;;;;;12.82;11.63;;;23.50;99.90;;;;;;6022808;29;89163;-64
2022/10/16 08:40:26;;;;;;;13.32;12.00;;;23.50;99.90;;;;;;6020329;29;89126;-64
2022/10/16 08:43:53;;;;;;;13.52;12.23;;;23.50;99.90;;;;;;6014923;29;90165;-65
2022/10/16 08:47:04;;;;;;;13.82;12.48;;;23.50;99.90;;;;;;6015009;29;89648;-65
2022/10/16 08:50:11;;;;;;;12.52;11.32;;;23.50;99.90;;;;;;6011499;29;88248;-65
2022/10/16 08:53:19;;;;;;;13.20;12.00;;;23.50;99.90;;;;;;6016892;29;88546;-64
2022/10/16 08:56:22;;;;;;;13.50;12.10;;;23.50;99.90;;;;;;6020614;29;89101;-65
2022/10/16 08:59:24;;;;;;;13.18;11.80;;;23.60;99.90;;;;;;6014203;29;89919;-65
2022/10/16 09:02:32;;;;;;;14.13;12.73;;;23.50;99.90;;;;;;6013746;29;87991;-64
2022/10/16 09:06:02;;;;;;;15.43;13.85;;;23.60;99.90;;;;;;6013627;29;88384;-64
2022/10/16 09:09:29;;;;;;;19.75;16.85;;;23.60;99.90;;;;;;6014194;29;89150;-64
2022/10/16 09:12:42;;;;;;;48.38;35.53;;;23.60;99.90;;;;;;6018000;29;89001;-65
2022/10/16 09:15:51;;;;;;;18.30;16.20;;;23.70;99.90;;;;;;6011914;29;91603;-64
2022/10/16 09:18:59;;;;;;;16.88;13.80;;;23.80;99.90;;;;;;6013341;29;89146;-64
2022/10/16 09:22:10;;;;;;;13.07;11.68;;;23.80;99.90;;;;;;6012960;29;89577;-65
2022/10/16 09:25:21;;;;;;;10.55;9.48;;;23.80;99.90;;;;;;6013182;29;88922;-65
2022/10/16 09:28:25;;;;;;;10.75;9.20;;;23.90;99.90;;;;;;6014116;29;89198;-64
2022/10/16 09:31:27;;;;;;;9.18;8.07;;;23.80;99.90;;;;;;6012340;29;89183;-65
2022/10/16 09:34:33;;;;;;;8.23;6.97;;;23.80;99.90;;;;;;6014185;29;89029;-65
2022/10/16 09:37:35;;;;;;;6.88;6.18;;;23.70;99.90;;;;;;6006135;29;88886;-65
2022/10/16 09:40:38;;;;;;;7.30;5.50;;;23.70;99.90;;;;;;6013744;29;88084;-65
2022/10/16 09:43:47;;;;;;;5.40;4.85;;;23.70;99.90;;;;;;6017781;29;89105;-65
2022/10/16 09:46:49;;;;;;;4.20;3.80;;;23.70;99.90;;;;;;6013548;29;90003;-66
2022/10/16 09:49:53;;;;;;;4.07;3.60;;;23.60;99.90;;;;;;6013347;29;89121;-65
2022/10/16 09:53:05;;;;;;;3.47;3.17;;;23.60;99.90;;;;;;6013931;29;88942;-65
2022/10/16 09:56:08;;;;;;;3.53;2.60;;;23.60;99.90;;;;;;6012522;29;89245;-65
2022/10/16 09:59:15;;;;;;;3.38;2.72;;;23.60;99.90;;;;;;6012400;29;89139;-65
2022/10/16 10:02:18;;;;;;;2.92;2.70;;;23.50;99.90;;;;;;6009765;29;89012;-64
2022/10/16 10:05:23;;;;;;;3.00;2.70;;;23.50;99.90;;;;;;6010357;29;88045;-65
2022/10/16 10:08:25;;;;;;;2.80;2.60;;;23.50;99.90;;;;;;6013083;29;88357;-66
2022/10/16 10:11:47;;;;;;;2.67;2.42;;;23.50;99.90;;;;;;6013030;29;88037;-65
2022/10/16 10:14:52;;;;;;;2.45;2.25;;;23.40;99.90;;;;;;6012131;29;88256;-65
2022/10/16 10:17:56;;;;;;;3.25;2.60;;;23.50;99.90;;;;;;6009252;29;89960;-65
2022/10/16 10:21:00;;;;;;;2.70;2.50;;;23.50;99.90;;;;;;6011346;29;89022;-65
2022/10/16 10:24:02;;;;;;;2.90;2.20;;;23.50;99.90;;;;;;6009750;29;88974;-64
2022/10/16 10:27:14;;;;;;;3.50;2.40;;;23.50;99.90;;;;;;6011836;29;88190;-65
2022/10/16 10:30:23;;;;;;;2.33;2.13;;;23.40;99.90;;;;;;6014938;29;89116;-65
2022/10/16 10:33:36;;;;;;;4.43;2.10;;;23.40;99.90;;;;;;6016760;29;89363;-65
2022/10/16 10:36:39;;;;;;;2.40;2.10;;;23.40;99.90;;;;;;6016889;29;89208;-64
2022/10/16 10:39:49;;;;;;;3.63;2.83;;;23.40;99.90;;;;;;6016690;29;88396;-65
2022/10/16 10:42:58;;;;;;;3.70;2.88;;;23.30;99.90;;;;;;6016063;29;89459;-65
2022/10/16 10:46:05;;;;;;;5.20;2.58;;;23.30;99.90;;;;;;6021213;29;89134;-65
2022/10/16 10:49:24;;;;;;;4.68;2.70;;;23.30;99.90;;;;;;6015099;29;90100;-65
2022/10/16 10:52:37;;;;;;;4.30;2.58;;;23.30;99.90;;;;;;6015912;29;89303;-65
2022/10/16 10:55:45;;;;;;;3.42;2.05;;;23.30;99.90;;;;;;6009567;29;89523;-64
2022/10/16 10:59:23;;;;;;;1.95;1.60;;;23.30;99.90;;;;;;6007988;29;89025;-65
2022/10/16 11:02:34;;;;;;;2.95;1.70;;;23.30;99.90;;;;;;6012072;29;91013;-64
2022/10/16 11:05:46;;;;;;;2.35;1.80;;;23.20;99.90;;;;;;6015212;29;89609;-65
2022/10/16 11:08:52;;;;;;;4.40;2.63;;;23.20;99.90;;;;;;6002679;29;89148;-64
2022/10/16 11:11:58;;;;;;;2.60;1.85;;;23.20;99.90;;;;;;6015219;29;87198;-64
2022/10/16 11:15:05;;;;;;;2.92;1.98;;;23.10;99.90;;;;;;6015122;29;89071;-65
2022/10/16 11:18:16;;;;;;;2.15;1.75;;;23.10;99.90;;;;;;6015184;29;89144;-64
2022/10/16 11:21:21;;;;;;;2.33;1.80;;;23.10;99.90;;;;;;6015197;29;89066;-65
2022/10/16 11:24:32;;;;;;;1.92;1.65;;;23.10;99.90;;;;;;6016376;29;88246;-64
2022/10/16 11:27:39;;;;;;;1.77;1.67;;;23.10;99.90;;;;;;6015786;29;88999;-64
2022/10/16 11:30:47;;;;;;;2.03;1.70;;;23.00;99.90;;;;;;6007546;29;89071;-64
2022/10/16 11:33:56;;;;;;;2.47;1.90;;;23.00;99.90;;;;;;6013087;29;89100;-65
2022/10/16 11:37:03;;;;;;;2.30;2.10;;;23.00;99.90;;;;;;6013603;29;88938;-64
2022/10/16 11:40:20;;;;;;;2.83;2.00;;;23.00;99.90;;;;;;6012645;29;89095;-64
2022/10/16 11:43:28;;;;;;;3.20;1.80;;;23.00;99.90;;;;;;6015199;29;88452;-65
2022/10/16 11:46:33;;;;;;;2.03;1.83;;;23.00;99.90;;;;;;6015143;29;89226;-65
2022/10/16 11:49:38;;;;;;;2.95;1.80;;;23.00;99.90;;;;;;6015520;29;88242;-64
2022/10/16 11:52:47;;;;;;;3.70;2.05;;;23.00;99.90;;;;;;6015334;29;89097;-64
2022/10/16 11:55:50;;;;;;;2.53;2.10;;;23.00;99.90;;;;;;6016071;29;89120;-64
2022/10/16 11:58:59;;;;;;;2.53;2.10;;;22.90;99.90;;;;;;6009901;29;89143;-64
2022/10/16 12:02:17;;;;;;;3.83;2.08;;;22.90;99.90;;;;;;6015667;29;88089;-63
2022/10/16 12:05:29;;;;;;;3.03;2.15;;;22.90;99.90;;;;;;6009693;29;88003;-64
2022/10/16 12:08:34;;;;;;;2.83;2.20;;;22.80;99.90;;;;;;6010678;29;89196;-63
2022/10/16 12:11:39;;;;;;;4.68;2.53;;;22.80;99.90;;;;;;6014633;29;89057;-63
2022/10/16 12:14:41;;;;;;;2.92;2.30;;;22.80;99.90;;;;;;6015473;29;88309;-64
2022/10/16 12:17:43;;;;;;;2.65;2.05;;;22.80;99.90;;;;;;6016025;29;89098;-63
2022/10/16 12:20:58;;;;;;;2.30;2.10;;;22.80;99.90;;;;;;6014822;29;89958;-64
2022/10/16 12:24:05;;;;;;;2.95;2.00;;;22.80;99.90;;;;;;6008973;29;90025;-64
2022/10/16 12:27:24;;;;;;;3.03;2.28;;;22.80;99.90;;;;;;6014802;29;89078;-64
2022/10/16 12:30:28;;;;;;;3.58;2.35;;;22.90;99.90;;;;;;6010295;29;89008;-63
2022/10/16 12:33:31;;;;;;;3.70;2.33;;;22.90;99.90;;;;;;6014452;29;89025;-64
2022/10/16 12:36:36;;;;;;;4.47;2.30;;;22.90;99.90;;;;;;6011913;29;87999;-64
2022/10/16 12:39:38;;;;;;;3.28;2.63;;;22.90;99.90;;;;;;6012193;29;89093;-64
2022/10/16 12:42:40;;;;;;;2.45;2.20;;;22.90;99.90;;;;;;6014076;29;89089;-63
2022/10/16 12:45:42;;;;;;;5.88;3.50;;;22.90;99.90;;;;;;6029608;29;87267;-64
2022/10/16 12:48:47;;;;;;;2.47;2.28;;;22.90;99.90;;;;;;6014988;29;89128;-64
2022/10/16 12:51:51;;;;;;;3.22;2.28;;;22.80;99.90;;;;;;6014006;29;89145;-64
2022/10/16 12:54:59;;;;;;;2.67;2.40;;;22.90;99.90;;;;;;6013578;29;90153;-64
2022/10/16 12:58:16;;;;;;;2.50;2.30;;;22.90;99.90;;;;;;6014451;29;87976;-64
2022/10/16 13:01:36;;;;;;;3.15;2.30;;;22.90;99.90;;;;;;6013294;29;89055;-64
2022/10/16 13:04:56;;;;;;;2.63;2.40;;;22.90;99.90;;;;;;6013966;29;89568;-64
2022/10/16 13:08:14;;;;;;;3.33;2.53;;;22.90;99.90;;;;;;6014536;29;91807;-64
2022/10/16 13:11:25;;;;;;;2.70;2.33;;;22.90;99.90;;;;;;6013792;29;89133;-64
2022/10/16 13:14:51;;;;;;;3.55;2.22;;;22.90;99.90;;;;;;6014669;29;88118;-64
2022/10/16 13:18:01;;;;;;;2.28;2.00;;;22.90;99.90;;;;;;6004635;29;88287;-64
2022/10/16 13:21:19;;;;;;;3.97;2.60;;;22.90;99.90;;;;;;6014743;29;89048;-64
2022/10/16 13:24:37;;;;;;;3.25;2.40;;;23.00;99.90;;;;;;6003934;29;89111;-64
2022/10/16 13:27:47;;;;;;;2.40;2.20;;;23.00;99.90;;;;;;6003517;29;90007;-64
2022/10/16 13:30:54;;;;;;;4.55;2.33;;;22.90;99.90;;;;;;6014333;29;89133;-64
2022/10/16 13:33:59;;;;;;;2.95;2.65;;;22.90;99.90;;;;;;6014785;29;89171;-64
2022/10/16 13:37:01;;;;;;;4.05;2.60;;;22.90;99.90;;;;;;6013966;29;88987;-64
2022/10/16 13:40:20;;;;;;;2.92;2.47;;;22.90;99.90;;;;;;6013008;29;89054;-64
2022/10/16 13:43:29;;;;;;;2.55;2.35;;;22.90;99.90;;;;;;6014082;29;89316;-63
2022/10/16 13:46:34;;;;;;;3.15;2.50;;;23.00;99.90;;;;;;6023297;29;89205;-63
2022/10/16 13:49:36;;;;;;;4.93;2.63;;;23.00;99.90;;;;;;6014200;29;88726;-63
2022/10/16 13:52:38;;;;;;;2.60;2.40;;;23.00;99.90;;;;;;6012885;29;89197;-64
2022/10/16 13:55:41;;;;;;;3.38;2.40;;;23.00;99.90;;;;;;6011952;29;89138;-64
2022/10/16 13:58:44;;;;;;;3.70;2.40;;;23.00;99.90;;;;;;6011718;29;90141;-64
2022/10/16 14:01:46;;;;;;;3.05;2.75;;;23.00;99.90;;;;;;6013152;29;89156;-64
2022/10/16 14:04:50;;;;;;;2.80;2.42;;;23.10;99.90;;;;;;6016817;29;89061;-64
2022/10/16 14:07:54;;;;;;;2.42;2.22;;;23.10;99.90;;;;;;6017676;29;89158;-64
2022/10/16 14:10:59;;;;;;;2.50;2.20;;;23.10;99.90;;;;;;6016889;29;89054;-64
2022/10/16 14:14:02;;;;;;;2.40;2.20;;;23.10;99.90;;;;;;6016905;29;89088;-64
2022/10/16 14:17:04;;;;;;;2.70;2.13;;;23.10;99.90;;;;;;6017359;29;89112;-64
2022/10/16 14:20:15;;;;;;;2.65;1.98;;;23.10;99.90;;;;;;6017630;29;87249;-64
2022/10/16 14:23:22;;;;;;;2.53;2.00;;;23.10;99.90;;;;;;6016482;29;89211;-64
2022/10/16 14:26:28;;;;;;;4.05;2.20;;;23.10;99.90;;;;;;6016961;29;89052;-64
2022/10/16 14:29:31;;;;;;;3.58;2.00;;;23.10;99.90;;;;;;6016192;29;90140;-64
2022/10/16 14:32:33;;;;;;;3.03;2.15;;;23.10;99.90;;;;;;6017115;29;89535;-64
2022/10/16 14:35:37;;;;;;;3.45;2.40;;;23.10;99.90;;;;;;6022401;28;89123;-64
2022/10/16 14:38:41;;;;;;;3.30;2.10;;;23.10;99.90;;;;;;6014774;29;89333;-65
2022/10/16 14:41:47;;;;;;;2.03;1.88;;;23.10;99.90;;;;;;6013854;29;89129;-64
2022/10/16 14:44:52;;;;;;;2.10;1.90;;;23.00;99.90;;;;;;6018017;28;89127;-64
2022/10/16 14:47:57;;;;;;;2.28;2.08;;;23.10;99.90;;;;;;6013827;29;89356;-65
2022/10/16 14:50:59;;;;;;;2.22;2.03;;;23.10;99.90;;;;;;6014029;29;88474;-64
2022/10/16 14:54:01;;;;;;;2.85;2.20;;;23.10;99.90;;;;;;6006040;29;89142;-65
2022/10/16 14:57:05;;;;;;;2.85;2.30;;;23.10;99.90;;;;;;6013640;29;89191;-64
2022/10/16 15:00:16;;;;;;;4.63;2.47;;;23.10;99.90;;;;;;6010477;29;90026;-65
2022/10/16 15:03:18;;;;;;;6.75;2.30;;;23.10;99.90;;;;;;6012472;29;89147;-64
2022/10/16 15:06:20;;;;;;;2.40;2.05;;;23.10;99.90;;;;;;6013119;29;89412;-65
2022/10/16 15:09:22;;;;;;;3.45;1.90;;;23.10;99.90;;;;;;6013388;29;90099;-64
2022/10/16 15:12:25;;;;;;;2.88;2.38;;;23.10;99.90;;;;;;6012361;29;88102;-64
2022/10/16 15:15:37;;;;;;;2.60;2.03;;;23.20;99.90;;;;;;6013154;29;89230;-65
2022/10/16 15:18:39;;;;;;;3.55;2.25;;;23.20;99.90;;;;;;6013297;29;89540;-64
2022/10/16 15:21:42;;;;;;;2.97;2.08;;;23.20;99.90;;;;;;6012017;29;88474;-65
2022/10/16 15:24:44;;;;;;;3.10;2.10;;;23.20;99.90;;;;;;6012689;29;89120;-65
2022/10/16 15:27:47;;;;;;;3.40;1.77;;;23.20;99.90;;;;;;6013585;29;89289;-64
2022/10/16 15:30:51;;;;;;;2.97;1.92;;;23.10;99.90;;;;;;6006783;29;89989;-64
2022/10/16 15:33:57;;;;;;;2.55;2.10;;;23.20;99.90;;;;;;6013357;29;87700;-64
2022/10/16 15:37:03;;;;;;;5.00;2.15;;;23.20;99.90;;;;;;6014550;29;89129;-64
2022/10/16 15:40:07;;;;;;;3.17;1.80;;;23.10;99.90;;;;;;6013759;29;89064;-64
2022/10/16 15:43:11;;;;;;;2.45;1.83;;;23.20;99.90;;;;;;6011898;29;88009;-64
2022/10/16 15:46:14;;;;;;;2.65;1.98;;;23.20;99.90;;;;;;6032330;29;88819;-64
2022/10/16 15:49:16;;;;;;;2.67;1.90;;;23.20;99.90;;;;;;6015590;29;89095;-65
2022/10/16 15:52:18;;;;;;;2.40;1.83;;;23.20;99.90;;;;;;6016073;29;87269;-64
2022/10/16 15:55:20;;;;;;;3.45;2.50;;;23.10;99.90;;;;;;6015056;29;89167;-65
2022/10/16 15:58:24;;;;;;;3.17;2.22;;;23.10;99.90;;;;;;6016085;29;89396;-65
2022/10/16 16:01:26;;;;;;;2.47;1.95;;;23.10;99.90;;;;;;6001391;29;89278;-64
2022/10/16 16:04:31;;;;;;;2.72;2.40;;;23.10;99.90;;;;;;6014770;29;89212;-64
2022/10/16 16:07:34;;;;;;;3.70;2.30;;;23.10;99.90;;;;;;6015700;29;87190;-64
2022/10/16 16:10:36;;;;;;;2.10;1.85;;;23.10;99.90;;;;;;6014975;29;89103;-65
2022/10/16 16:13:40;;;;;;;2.30;2.10;;;23.10;99.90;;;;;;6015030;29;89225;-64
2022/10/16 16:16:43;;;;;;;3.08;1.95;;;23.20;99.90;;;;;;6015264;29;89101;-64
2022/10/16 16:19:46;;;;;;;2.45;2.10;;;23.10;99.90;;;;;;6016138;29;89079;-65
2022/10/16 16:22:48;;;;;;;2.55;2.20;;;23.10;99.90;;;;;;6015707;29;88320;-64
2022/10/16 16:26:05;;;;;;;4.88;2.40;;;23.10;99.90;;;;;;6015366;29;88025;-65
2022/10/16 16:29:10;;;;;;;3.63;2.40;;;23.20;99.90;;;;;;6015162;29;89057;-64
2022/10/16 16:32:12;;;;;;;2.97;2.30;;;23.20;99.90;;;;;;6015561;29;90096;-64
2022/10/16 16:35:15;;;;;;;3.70;2.63;;;23.10;99.90;;;;;;6014849;29;89147;-64
2022/10/16 16:38:17;;;;;;;2.95;2.22;;;23.10;99.90;;;;;;6014544;29;89243;-65
2022/10/16 16:41:21;;;;;;;3.22;2.40;;;23.10;99.90;;;;;;6014907;29;88735;-64
2022/10/16 16:44:24;;;;;;;4.10;2.40;;;23.10;99.90;;;;;;6022967;29;87077;-64
2022/10/16 16:47:26;;;;;;;2.63;2.40;;;23.10;99.90;;;;;;6022444;29;88154;-64
2022/10/16 16:50:29;;;;;;;3.55;2.42;;;23.10;99.90;;;;;;6013890;29;89044;-65
2022/10/16 16:53:31;;;;;;;2.47;2.28;;;23.10;99.90;;;;;;6016079;29;88366;-65
2022/10/16 16:56:33;;;;;;;2.20;2.00;;;23.10;99.90;;;;;;6014003;29;87994;-64
2022/10/16 16:59:39;;;;;;;2.40;2.20;;;23.10;99.90;;;;;;6014997;29;89358;-63
2022/10/16 17:02:43;;;;;;;5.38;2.88;;;23.10;99.90;;;;;;6013287;29;89996;-65
2022/10/16 17:05:56;;;;;;;6.97;2.92;;;23.10;99.90;;;;;;6013831;29;88358;-65
2022/10/16 17:09:06;;;;;;;5.10;2.80;;;23.10;99.90;;;;;;6012314;29;88067;-64
2022/10/16 17:12:09;;;;;;;7.25;2.47;;;23.10;99.90;;;;;;6010252;29;90257;-64
2022/10/16 17:15:13;;;;;;;5.90;2.80;;;23.10;99.90;;;;;;6014405;29;88042;-64
2022/10/16 17:18:20;;;;;;;5.13;2.70;;;23.10;99.90;;;;;;6013296;29;88390;-64
2022/10/16 17:21:25;;;;;;;5.43;2.90;;;23.20;99.90;;;;;;6014198;29;88100;-65
2022/10/16 17:24:28;;;;;;;7.45;2.88;;;23.10;99.90;;;;;;6014619;29;86459;-65
2022/10/16 17:27:30;;;;;;;5.95;3.10;;;23.20;99.90;;;;;;6014637;29;87902;-65
2022/10/16 17:30:36;;;;;;;7.80;2.95;;;23.20;99.90;;;;;;6014917;29;89237;-64
2022/10/16 17:33:39;;;;;;;4.53;2.70;;;23.10;99.90;;;;;;6012669;29;88172;-65
2022/10/16 17:36:45;;;;;;;5.55;3.13;;;23.20;99.90;;;;;;6015036;29;88071;-64
2022/10/16 17:39:52;;;;;;;5.03;2.80;;;23.10;99.90;;;;;;6017549;29;87195;-64
2022/10/16 17:42:56;;;;;;;4.15;2.58;;;23.10;99.90;;;;;;6017731;29;89203;-64
2022/10/16 17:46:03;;;;;;;5.68;2.85;;;23.20;99.90;;;;;;6021903;28;88008;-65
2022/10/16 17:49:06;;;;;;;3.78;2.63;;;23.20;99.90;;;;;;6017547;29;87804;-64
2022/10/16 17:52:09;;;;;;;5.97;2.60;;;23.10;99.90;;;;;;6018545;29;89614;-65
2022/10/16 17:55:13;;;;;;;5.72;2.78;;;23.10;99.90;;;;;;6017520;29;88439;-64
2022/10/16 17:58:16;;;;;;;5.80;2.70;;;23.10;99.90;;;;;;6019150;29;87165;-65
2022/10/16 18:01:23;;;;;;;3.72;2.50;;;23.10;99.90;;;;;;6017851;29;88106;-64
2022/10/16 18:04:27;;;;;;;5.10;2.65;;;23.20;99.90;;;;;;6016681;29;90591;-65
2022/10/16 18:07:30;;;;;;;4.53;2.63;;;23.10;99.90;;;;;;6017780;29;88538;-65
2022/10/16 18:10:33;;;;;;;6.45;2.60;;;23.10;99.90;;;;;;6017558;29;88722;-64
2022/10/16 18:13:36;;;;;;;3.95;2.47;;;23.20;99.90;;;;;;6018082;29;88457;-65
2022/10/16 18:16:41;;;;;;;4.00;2.78;;;23.20;99.90;;;;;;6017818;29;89084;-64
2022/10/16 18:19:45;;;;;;;4.95;2.60;;;23.20;99.90;;;;;;6016815;29;89268;-64
2022/10/16 18:22:47;;;;;;;3.67;2.75;;;23.20;99.90;;;;;;6010628;29;89046;-65
2022/10/16 18:25:51;;;;;;;4.20;2.72;;;23.20;99.90;;;;;;6017262;29;89202;-64
2022/10/16 18:28:55;;;;;;;4.07;2.83;;;23.20;99.90;;;;;;6016521;29;88993;-65
2022/10/16 18:32:00;;;;;;;4.43;2.75;;;23.20;99.90;;;;;;6008616;29;88934;-65
2022/10/16 18:35:05;;;;;;;6.05;2.92;;;23.20;99.90;;;;;;6016994;29;89008;-65
2022/10/16 18:38:07;;;;;;;4.88;2.88;;;23.20;99.90;;;;;;6021115;29;87135;-65
2022/10/16 18:41:11;;;;;;;5.95;3.08;;;23.20;99.90;;;;;;6015966;29;89207;-65
2022/10/16 18:44:14;;;;;;;5.18;2.55;;;23.30;99.90;;;;;;6028682;29;89090;-65
2022/10/16 18:47:19;;;;;;;4.55;2.80;;;23.30;99.90;;;;;;6025196;28;88533;-65
2022/10/16 18:50:23;;;;;;;6.85;3.10;;;23.30;99.90;;;;;;6025916;29;88281;-65
2022/10/16 18:53:26;;;;;;;6.30;3.08;;;23.30;99.90;;;;;;6028047;29;88071;-65
2022/10/16 18:56:31;;;;;;;4.85;2.88;;;23.30;99.90;;;;;;6014895;29;86934;-65
2022/10/16 18:59:34;;;;;;;4.60;3.05;;;23.30;99.90;;;;;;6016556;29;88563;-65
2022/10/16 19:02:43;;;;;;;4.80;2.78;;;23.30;99.90;;;;;;6016023;29;88544;-65
2022/10/16 19:05:46;;;;;;;5.45;3.13;;;23.30;99.90;;;;;;6014976;29;89202;-65
2022/10/16 19:08:49;;;;;;;5.25;2.65;;;23.30;99.90;;;;;;6012217;29;87956;-65
2022/10/16 19:11:53;;;;;;;5.65;2.95;;;23.30;99.90;;;;;;6016748;29;88777;-65
2022/10/16 19:14:56;;;;;;;3.80;2.78;;;23.30;99.90;;;;;;6016146;29;88010;-65